Terminal Aerodrome Forecast
Issued by NWS

Home | Current Version | Previous Version | Text Only | Print | Product List | Glossary On
Versions: 1 2 3 4 5 6 7 8 9 10 11 12 13
000
FTUS42 TJSJ 182300
TAFJPS
TAF
TJPS 182320Z 1900/1924 07007KT P6SM -RA SCT030 BKN060
     FM190300 04002KT P6SM FEW030 SCT080
     FM191600 17012KT P6SM VCSH SCT030 SCT050
     FM192300 05006KT P6SM FEW030 SCT080
      AMD NOT SKED TIL 190300=

USA.gov is the U.S. government's official web portal to all federal, state and local government web resources and services.